Time;durP1;ratioP1;P1;durP2;ratioP2;P2;SDS_P1;SDS_P2;PMS_P1;PMS_P2;Temp;Humidity;BMP_temperature;BMP_pressure;BME280_temperature;BME280_humidity;BME280_pressure;Samples;Min_cycle;Max_cycle;Signal;HPM_P1;HPM_P2
2021/12/03 00:00:24;;;;;;;3.42;2.67;;;;;;;2.81;56.13;92370.59;4965707;28;20300;-83
2021/12/03 00:02:50;;;;;;;5.57;2.10;;;;;;;3.16;55.75;92397.84;4982766;28;20554;-83
2021/12/03 00:05:16;;;;;;;5.28;2.20;;;;;;;3.48;56.47;92471.13;4981143;28;20042;-86
2021/12/03 00:07:43;;;;;;;4.75;2.88;;;;;;;3.97;56.06;92493.78;4980443;28;20187;-83
2021/12/03 00:10:14;;;;;;;2.50;1.85;;;;;;;5.10;55.70;92643.19;4982742;28;20045;-84
2021/12/03 00:12:45;;;;;;;1.52;1.42;;;;;;;5.17;55.62;92638.25;4972559;28;20108;-83
2021/12/03 00:15:15;;;;;;;3.70;1.40;;;;;;;6.19;55.47;92752.09;4976900;28;20033;-83
2021/12/03 00:17:46;;;;;;;6.20;1.60;;;;;;;5.56;54.85;92630.22;4980793;28;20021;-84
2021/12/03 00:20:14;;;;;;;1.70;1.25;;;;;;;5.97;54.35;92629.72;4967853;28;20092;-83
2021/12/03 00:22:42;;;;;;;2.70;1.30;;;;;;;6.76;53.42;92729.66;4972959;28;20118;-84
2021/12/03 00:25:08;;;;;;;5.03;1.40;;;;;;;5.54;53.53;92545.34;4982159;28;20054;-84
2021/12/03 00:27:34;;;;;;;1.52;1.40;;;;;;;5.48;52.93;92474.66;4943276;28;20105;-84
2021/12/03 00:29:59;;;;;;;2.33;1.75;;;;;;;7.36;51.32;92682.91;4964774;28;20438;-82
2021/12/03 00:32:25;;;;;;;2.45;1.50;;;;;;;7.53;51.21;92699.47;4959410;28;20082;-83
2021/12/03 00:34:51;;;;;;;6.80;1.80;;;;;;;5.77;51.20;92429.13;4958549;28;20066;-84
2021/12/03 00:37:17;;;;;;;1.77;1.50;;;;;;;6.12;49.99;92471.94;4964611;28;20070;-84
2021/12/03 00:39:42;;;;;;;2.75;2.05;;;;;;;7.03;50.26;92656.34;4956362;28;20121;-84
2021/12/03 00:42:15;;;;;;;1.27;1.17;;;;;;;6.45;49.46;92514.41;4971904;28;20062;-84
2021/12/03 00:44:45;;;;;;;1.40;1.30;;;;;;;7.85;50.04;92766.88;4980200;28;20038;-83
2021/12/03 00:47:17;;;;;;;1.38;1.15;;;;;;;8.06;49.92;92748.38;4975049;28;20478;-83
2021/12/03 00:49:42;;;;;;;3.20;1.40;;;;;;;7.89;50.24;92761.72;4964606;28;20046;-83
2021/12/03 00:52:21;;;;;;;2.45;1.33;;;;;;;5.34;51.17;92408.13;4960446;28;20045;-84
2021/12/03 00:54:46;;;;;;;6.47;2.03;;;;;;;6.37;52.08;92608.41;4951915;28;20046;-83
2021/12/03 00:57:12;;;;;;;1.92;1.10;;;;;;;6.31;52.13;92581.38;4965064;28;20057;-83
2021/12/03 00:59:45;;;;;;;2.30;1.48;;;;;;;7.48;51.88;92712.91;4957991;28;20085;-83
2021/12/03 01:02:18;;;;;;;1.65;1.40;;;;;;;6.89;51.44;92605.56;4965479;28;20040;-83
2021/12/03 01:04:49;;;;;;;1.30;1.20;;;;;;;5.21;52.06;92386.16;4955171;28;20042;-83
2021/12/03 01:07:15;;;;;;;1.20;1.10;;;;;;;6.94;51.58;92631.81;4959116;28;20134;-83
2021/12/03 01:09:45;;;;;;;5.88;2.30;;;;;;;6.95;51.75;92639.41;4959342;28;20507;-85
2021/12/03 01:12:33;;;;;;;2.47;1.30;;;;;;;7.41;52.08;92738.28;4955386;28;20574;-84
2021/12/03 01:15:06;;;;;;;1.10;1.00;;;;;;;5.22;52.35;92413.28;4964726;28;20057;-83
2021/12/03 01:17:34;;;;;;;2.08;1.30;;;;;;;6.10;52.56;92495.25;4963556;28;20124;-85
2021/12/03 01:20:04;;;;;;;1.08;0.98;;;;;;;6.93;52.62;92631.03;4964037;28;20066;-84
2021/12/03 01:22:30;;;;;;;1.30;1.20;;;;;;;7.56;52.29;92701.47;4956779;28;20034;-85
2021/12/03 01:24:55;;;;;;;1.65;1.38;;;;;;;7.29;51.96;92668.31;4962941;28;20068;-84
2021/12/03 01:27:21;;;;;;;2.22;1.20;;;;;;;6.35;52.26;92531.38;4976899;28;20597;-84
2021/12/03 01:29:58;;;;;;;1.10;1.00;;;;;;;7.64;52.12;92713.88;4981752;28;20026;-85
2021/12/03 01:32:24;;;;;;;2.13;0.93;;;;;;;6.29;52.10;92522.88;4951319;28;20050;-85
2021/12/03 01:34:57;;;;;;;1.63;1.10;;;;;;;5.57;51.64;92370.69;4965447;28;20423;-84
2021/12/03 01:37:32;;;;;;;4.90;1.15;;;;;;;5.55;51.74;92398.47;4961536;28;20057;-84
2021/12/03 01:39:57;;;;;;;1.90;1.43;;;;;;;5.74;51.38;92383.03;4968830;28;20485;-85
2021/12/03 01:42:23;;;;;;;2.50;1.52;;;;;;;7.27;51.35;92608.94;4965282;28;20042;-85
2021/12/03 01:44:48;;;;;;;1.33;1.17;;;;;;;7.16;50.83;92563.56;4961369;28;20042;-85
2021/12/03 01:47:14;;;;;;;4.18;0.95;;;;;;;6.86;50.94;92525.81;4959537;28;20152;-84
2021/12/03 01:49:42;;;;;;;3.17;1.00;;;;;;;6.46;50.17;92453.34;4966769;28;20518;-84
2021/12/03 01:52:08;;;;;;;2.13;1.00;;;;;;;6.85;49.52;92479.34;4966449;28;20034;-86
2021/12/03 01:54:36;;;;;;;2.28;2.10;;;;;;;8.00;50.58;92712.59;4958065;28;20141;-86
2021/12/03 01:57:02;;;;;;;5.60;2.08;;;;;;;7.29;51.39;92626.00;4958914;28;20076;-85
2021/12/03 01:59:28;;;;;;;1.20;1.10;;;;;;;6.86;51.41;92560.19;4952105;28;20417;-85
2021/12/03 02:01:53;;;;;;;1.15;0.90;;;;;;;7.55;51.29;92654.94;4957974;28;21097;-85
2021/12/03 02:04:19;;;;;;;1.15;1.05;;;;;;;7.41;51.29;92627.19;4945775;28;20053;-86
2021/12/03 02:06:44;;;;;;;1.23;0.90;;;;;;;7.22;51.32;92569.44;4963626;28;20039;-84
2021/12/03 02:09:23;;;;;;;;;;;;;;;;;;;;;
2021/12/03 02:11:49;;;;;;;1.27;0.85;;;;;;;6.98;50.59;92519.06;4961301;28;20034;-85
2021/12/03 02:14:14;;;;;;;1.05;0.95;;;;;;;6.16;50.48;92360.19;4956762;28;20515;-85
2021/12/03 02:16:43;;;;;;;1.08;0.98;;;;;;;7.24;49.53;92472.06;4957876;28;20042;-85
2021/12/03 02:19:09;;;;;;;3.45;1.30;;;;;;;6.45;50.59;92409.56;4957765;28;20164;-85
2021/12/03 02:21:42;;;;;;;1.10;1.00;;;;;;;5.54;50.96;92300.13;4941870;28;20130;-85
2021/12/03 02:24:08;;;;;;;1.02;0.93;;;;;;;7.95;51.03;92675.72;4956717;28;20948;-85
2021/12/03 02:26:54;;;;;;;0.90;0.90;;;;;;;7.84;50.79;92626.91;4962615;28;21362;-85
2021/12/03 02:29:22;;;;;;;0.98;0.88;;;;;;;8.04;51.05;92650.72;4960791;28;20043;-85
2021/12/03 02:31:50;;;;;;;1.88;1.30;;;;;;;5.80;50.90;92323.72;4979555;28;20450;-85
2021/12/03 02:34:15;;;;;;;1.20;1.10;;;;;;;7.52;50.29;92536.56;4972442;28;20060;-86
2021/12/03 02:36:41;;;;;;;1.20;1.10;;;;;;;6.99;50.75;92504.78;4979751;28;20053;-85
2021/12/03 02:39:07;;;;;;;1.70;1.10;;;;;;;7.88;51.36;92675.44;4992779;28;20031;-85
2021/12/03 02:41:32;;;;;;;1.10;1.00;;;;;;;7.52;50.76;92586.81;4962829;28;20542;-85
2021/12/03 02:43:58;;;;;;;2.78;1.45;;;;;;;6.80;51.15;92498.03;4966941;28;20510;-85
2021/12/03 02:46:23;;;;;;;1.40;1.30;;;;;;;6.23;51.22;92399.25;4958831;28;20027;-85
2021/12/03 02:48:49;;;;;;;4.70;1.27;;;;;;;7.94;50.89;92634.44;4961204;28;20045;-85
2021/12/03 02:51:17;;;;;;;1.33;1.10;;;;;;;6.86;50.74;92502.03;4964944;28;20064;-85
2021/12/03 02:53:45;;;;;;;1.45;1.27;;;;;;;7.16;50.26;92489.53;4971340;28;20038;-85
2021/12/03 02:56:11;;;;;;;1.50;1.40;;;;;;;7.51;50.47;92558.81;4954020;28;20050;-85
2021/12/03 02:58:44;;;;;;;1.63;1.33;;;;;;;6.58;50.07;92399.81;4950760;28;20041;-86
2021/12/03 03:01:22;;;;;;;1.55;1.42;;;;;;;6.39;50.08;92365.94;4960452;28;20037;-85
2021/12/03 03:03:51;;;;;;;2.00;1.38;;;;;;;7.02;50.79;92493.53;4959463;28;20038;-84
2021/12/03 03:06:26;;;;;;;1.33;1.15;;;;;;;8.16;50.83;92705.63;4955472;28;20483;-85
2021/12/03 03:08:54;;;;;;;1.23;1.10;;;;;;;6.38;50.54;92385.50;4967210;28;20027;-83
2021/12/03 03:11:21;;;;;;;1.17;1.10;;;;;;;6.13;50.82;92383.75;4960927;28;20046;-84
2021/12/03 03:14:11;;;;;;;1.40;1.30;;;;;;;6.49;50.69;92451.94;4975623;28;20403;-84
2021/12/03 03:16:42;;;;;;;1.25;1.10;;;;;;;6.49;50.14;92449.28;4962333;28;20034;-84
2021/12/03 03:19:17;;;;;;;1.27;1.17;;;;;;;8.20;50.38;92727.69;4944248;28;20063;-84
2021/12/03 03:21:55;;;;;;;1.73;1.20;;;;;;;6.97;51.16;92554.53;4966573;28;20026;-84
2021/12/03 03:24:45;;;;;;;1.40;1.30;;;;;;;8.18;50.59;92698.09;4960733;28;20045;-84
2021/12/03 03:27:17;;;;;;;3.85;2.13;;;;;;;8.27;50.43;92708.63;4979972;28;20034;-85
2021/12/03 03:29:44;;;;;;;1.23;1.10;;;;;;;7.27;50.13;92608.94;4966114;28;20479;-85
2021/12/03 03:32:20;;;;;;;2.85;1.10;;;;;;;5.65;51.10;92398.13;4992431;28;20073;-83
2021/12/03 03:34:46;;;;;;;1.92;1.38;;;;;;;7.57;50.00;92621.03;4974517;28;20046;-85
2021/12/03 03:37:13;;;;;;;1.30;1.20;;;;;;;7.61;49.14;92568.22;4983437;28;20108;-85
2021/12/03 03:39:43;;;;;;;2.13;1.40;;;;;;;6.85;48.54;92438.94;4963678;28;20038;-85
2021/12/03 03:42:12;;;;;;;1.35;1.25;;;;;;;6.53;48.76;92400.78;4967894;28;20022;-85
2021/12/03 03:44:38;;;;;;;2.03;1.30;;;;;;;6.84;48.59;92424.97;4961667;28;20023;-85
2021/12/03 03:47:05;;;;;;;4.32;1.88;;;;;;;7.77;47.97;92566.56;4972686;28;20415;-85
2021/12/03 03:49:32;;;;;;;2.33;1.75;;;;;;;6.39;49.23;92411.59;4986954;28;20483;-85
2021/12/03 03:52:04;;;;;;;2.42;1.83;;;;;;;6.21;49.72;92412.81;4980388;28;20048;-85
2021/12/03 03:54:35;;;;;;;2.35;1.67;;;;;;;7.01;50.82;92592.44;4981247;28;20033;-85
2021/12/03 03:57:05;;;;;;;6.63;2.35;;;;;;;7.97;50.43;92713.25;4970891;28;20041;-84
2021/12/03 03:59:30;;;;;;;2.58;1.50;;;;;;;7.32;49.19;92576.22;4978144;28;20565;-85
2021/12/03 04:01:56;;;;;;;2.30;1.38;;;;;;;7.29;50.09;92633.94;4978668;28;20128;-85
2021/12/03 04:04:23;;;;;;;3.05;1.48;;;;;;;6.61;48.55;92449.34;4976482;28;20141;-85
2021/12/03 04:06:50;;;;;;;2.83;1.65;;;;;;;8.23;49.77;92716.44;4981383;28;20121;-85
2021/12/03 04:09:16;;;;;;;3.40;1.60;;;;;;;8.31;49.55;92731.50;4980099;28;20034;-85
2021/12/03 04:11:50;;;;;;;1.10;1.08;;;;;;;7.12;50.70;92625.34;4965080;28;20088;-85
2021/12/03 04:14:18;;;;;;;2.08;1.58;;;;;;;6.29;51.05;92524.72;4960469;28;20038;-85
2021/12/03 04:16:48;;;;;;;2.20;1.52;;;;;;;6.62;51.88;92596.97;4933338;28;20062;-86
2021/12/03 04:19:14;;;;;;;3.53;1.67;;;;;;;7.53;51.72;92714.59;4980652;28;20066;-85
2021/12/03 04:21:39;;;;;;;2.78;1.55;;;;;;;7.35;52.18;92698.00;4953750;28;20667;-85
2021/12/03 04:24:05;;;;;;;1.55;1.30;;;;;;;7.29;51.85;92688.69;4962980;28;20031;-85
2021/12/03 04:26:31;;;;;;;1.55;1.23;;;;;;;6.76;51.61;92571.09;4987030;28;20026;-86
2021/12/03 04:28:56;;;;;;;2.83;1.55;;;;;;;7.86;51.37;92714.72;4985625;28;20034;-85
2021/12/03 04:31:22;;;;;;;2.17;1.23;;;;;;;6.42;51.51;92524.50;4971816;28;20084;-85
2021/12/03 04:34:08;;;;;;;3.90;1.27;;;;;;;5.11;52.05;92345.09;4982918;28;20042;-85
2021/12/03 04:36:42;;;;;;;1.45;1.10;;;;;;;6.23;51.70;92504.88;4976743;28;20572;-85
2021/12/03 04:39:12;;;;;;;1.88;1.75;;;;;;;6.15;50.65;92481.91;4971378;28;20034;-85
2021/12/03 04:41:50;;;;;;;2.03;1.50;;;;;;;5.50;52.02;92469.81;4974071;28;20031;-85
2021/12/03 04:44:15;;;;;;;1.30;1.20;;;;;;;7.14;52.58;92691.91;4967678;28;20030;-85
2021/12/03 04:46:41;;;;;;;2.17;1.20;;;;;;;5.75;51.85;92453.16;4974143;28;20096;-85
2021/12/03 04:49:07;;;;;;;1.60;1.50;;;;;;;5.42;52.25;92418.69;4946996;28;20159;-85
2021/12/03 04:51:50;;;;;;;2.53;1.77;;;;;;;5.62;51.69;92446.22;4958572;28;20431;-85
2021/12/03 04:54:29;;;;;;;1.30;1.20;;;;;;;7.26;52.62;92744.88;4969716;28;20460;-86
2021/12/03 04:56:58;;;;;;;1.73;1.35;;;;;;;5.31;52.08;92443.03;4953844;28;20030;-84
2021/12/03 04:59:29;;;;;;;5.93;1.67;;;;;;;6.75;50.97;92601.25;4962094;28;20052;-85
2021/12/03 05:01:56;;;;;;;1.95;1.33;;;;;;;6.63;51.59;92595.13;4967971;28;20030;-84
2021/12/03 05:04:25;;;;;;;2.03;1.63;;;;;;;6.55;51.51;92546.53;4960282;28;20211;-83
2021/12/03 05:07:05;;;;;;;1.33;1.23;;;;;;;6.53;50.40;92503.03;4962957;28;20407;-85
2021/12/03 05:09:33;;;;;;;5.15;2.47;;;;;;;6.07;50.71;92437.84;4977431;28;20046;-85
2021/12/03 05:12:08;;;;;;;1.15;1.05;;;;;;;7.16;50.99;92584.72;4964834;28;20093;-85
2021/12/03 05:14:44;;;;;;;1.45;1.33;;;;;;;6.19;50.91;92525.84;4969054;28;20507;-85
2021/12/03 05:17:10;;;;;;;1.90;1.52;;;;;;;6.70;51.23;92651.63;4966054;28;20125;-85
2021/12/03 05:23:10;;;;;;;4.70;1.60;;;;;;;6.14;49.60;92454.72;4995663;28;20063;-86
2021/12/03 05:25:42;;;;;;;2.47;1.80;;;;;;;5.85;50.94;92505.59;4972554;28;20049;-86
2021/12/03 05:28:17;;;;;;;1.63;1.45;;;;;;;5.58;51.30;92498.03;4980728;28;20041;-85
2021/12/03 05:30:43;;;;;;;3.13;1.88;;;;;;;5.73;50.95;92481.72;4966826;28;20072;-85
2021/12/03 05:33:41;;;;;;;7.97;2.08;;;;;;;5.66;51.37;92468.25;4982013;28;20500;-84
2021/12/03 05:36:09;;;;;;;4.90;1.95;;;;;;;6.42;50.74;92534.28;4961891;28;20049;-85
2021/12/03 05:38:35;;;;;;;2.67;1.70;;;;;;;7.85;50.86;92758.16;4982890;28;20816;-85
2021/12/03 05:41:11;;;;;;;5.18;2.15;;;;;;;7.50;50.00;92686.88;4976889;28;20057;-84
2021/12/03 05:43:36;;;;;;;2.75;1.90;;;;;;;6.54;49.96;92542.31;4967143;28;20053;-85
2021/12/03 05:46:02;;;;;;;4.13;1.35;;;;;;;7.06;50.99;92658.34;4966176;28;20038;-84
2021/12/03 05:48:31;;;;;;;1.40;1.30;;;;;;;7.39;53.01;92788.84;4958664;28;20038;-85
2021/12/03 05:50:56;;;;;;;3.15;1.33;;;;;;;7.14;51.43;92674.16;4970738;28;20399;-85
2021/12/03 05:53:22;;;;;;;1.08;1.08;;;;;;;7.05;51.87;92664.72;4967322;28;20518;-84
2021/12/03 05:56:13;;;;;;;4.30;1.40;;;;;;;6.78;51.71;92595.38;4984063;28;20038;-85
2021/12/03 05:58:55;;;;;;;2.05;1.83;;;;;;;6.34;52.12;92540.41;4979528;28;20062;-84
2021/12/03 06:01:21;;;;;;;1.00;1.00;;;;;;;7.39;52.80;92664.53;4965356;28;20244;-85
2021/12/03 06:03:56;;;;;;;2.75;1.23;;;;;;;6.66;51.40;92518.63;4979664;28;20033;-85
2021/12/03 06:06:27;;;;;;;0.88;0.88;;;;;;;6.05;52.57;92453.22;4984584;28;20168;-85
2021/12/03 06:08:53;;;;;;;3.08;1.58;;;;;;;6.38;52.47;92512.25;4980990;28;20121;-84
2021/12/03 06:11:37;;;;;;;0.85;0.85;;;;;;;6.38;51.92;92491.13;4977169;28;20038;-85
2021/12/03 06:14:12;;;;;;;1.13;1.02;;;;;;;6.19;52.09;92456.44;4967093;28;20034;-85
2021/12/03 06:16:38;;;;;;;1.00;0.90;;;;;;;6.97;52.27;92600.22;4969074;28;20534;-85
2021/12/03 06:19:06;;;;;;;0.95;0.95;;;;;;;8.18;52.28;92764.31;4991157;28;20038;-85
2021/12/03 06:21:32;;;;;;;2.05;1.30;;;;;;;7.42;50.85;92632.16;4986868;28;20047;-85
2021/12/03 06:23:57;;;;;;;15.77;4.30;;;;;;;6.41;50.79;92504.47;4979997;28;20407;-86
2021/12/03 06:26:24;;;;;;;1.35;1.25;;;;;;;6.39;51.39;92505.88;4980593;28;20030;-85
2021/12/03 06:28:49;;;;;;;2.90;1.27;;;;;;;7.70;51.73;92677.41;4982734;28;20073;-85
2021/12/03 06:31:22;;;;;;;8.98;2.30;;;;;;;7.36;52.41;92657.25;4983829;28;20129;-84
2021/12/03 06:33:50;;;;;;;2.10;1.20;;;;;;;7.44;51.32;92582.34;4961296;28;20655;-85
2021/12/03 06:36:16;;;;;;;1.23;0.82;;;;;;;7.59;52.37;92661.16;4983574;28;20554;-85
2021/12/03 06:38:42;;;;;;;6.28;2.00;;;;;;;6.86;51.99;92554.91;4984003;28;20033;-85
2021/12/03 06:41:07;;;;;;;2.83;1.30;;;;;;;6.43;51.97;92483.81;4980700;28;20045;-86
2021/12/03 06:43:36;;;;;;;1.50;1.05;;;;;;;6.33;52.45;92488.66;4958030;28;20037;-86
2021/12/03 06:46:02;;;;;;;2.55;1.13;;;;;;;6.46;52.03;92492.94;4963072;28;20029;-85
2021/12/03 06:48:28;;;;;;;1.42;1.05;;;;;;;8.02;51.43;92683.94;4973205;28;20042;-86
2021/12/03 06:50:56;;;;;;;1.10;1.00;;;;;;;6.70;51.05;92526.72;4959421;28;20129;-85
2021/12/03 06:53:41;;;;;;;1.70;1.60;;;;;;;7.51;52.16;92675.22;4977088;28;20042;-83
2021/12/03 06:56:09;;;;;;;3.83;1.77;;;;;;;6.70;51.84;92534.66;4935565;28;20450;-85
2021/12/03 06:58:35;;;;;;;6.93;0.90;;;;;;;7.78;52.59;92715.56;4954885;28;20088;-85
2021/12/03 07:01:01;;;;;;;1.45;1.35;;;;;;;7.38;52.41;92692.09;4978464;28;20554;-85
2021/12/03 07:03:30;;;;;;;1.33;0.90;;;;;;;7.93;53.13;92776.63;4975621;28;20038;-86
2021/12/03 07:05:56;;;;;;;1.33;1.27;;;;;;;7.56;52.28;92730.59;4977248;28;20037;-86
2021/12/03 07:08:21;;;;;;;1.25;1.10;;;;;;;7.43;51.80;92664.69;4963378;28;20042;-86
2021/12/03 07:10:47;;;;;;;1.45;1.20;;;;;;;7.58;52.31;92749.53;4981626;28;20038;-86
2021/12/03 07:13:12;;;;;;;2.35;1.45;;;;;;;7.10;53.16;92680.41;4967686;28;20504;-86
2021/12/03 07:15:38;;;;;;;1.60;1.50;;;;;;;7.86;53.18;92802.06;4966026;28;20605;-89
2021/12/03 07:18:07;;;;;;;4.88;1.35;;;;;;;7.33;52.61;92665.84;4969708;28;20442;-87
2021/12/03 07:20:33;;;;;;;4.38;1.10;;;;;;;8.38;52.72;92784.72;4984050;28;20014;-87
2021/12/03 07:23:05;;;;;;;0.88;0.82;;;;;;;6.43;52.37;92514.72;4983870;28;20529;-85
2021/12/03 07:25:41;;;;;;;;;;;;;;;;;;;;;
2021/12/03 07:28:26;;;;;;;2.65;0.90;;;;;;;8.57;52.17;92869.84;4966477;28;20053;-86
2021/12/03 07:30:55;;;;;;;1.60;1.15;;;;;;;8.30;51.04;92724.66;4949136;28;20093;-86
2021/12/03 07:33:24;;;;;;;4.30;1.23;;;;;;;6.58;51.48;92474.56;4964211;28;20117;-86
2021/12/03 07:35:50;;;;;;;32.10;10.38;;;;;;;7.23;52.34;92626.53;4982431;28;20068;-85
2021/12/03 07:38:17;;;;;;;4.25;1.83;;;;;;;8.28;52.65;92811.59;4979190;28;20042;-85
2021/12/03 07:40:44;;;;;;;1.65;1.00;;;;;;;7.60;52.27;92675.16;4977805;28;20503;-85
2021/12/03 07:43:13;;;;;;;2.47;0.85;;;;;;;7.81;52.00;92689.22;4978713;28;20046;-86
2021/12/03 07:45:41;;;;;;;3.15;1.10;;;;;;;8.04;51.67;92706.31;4974966;28;20096;-87
2021/12/03 07:48:07;;;;;;;3.25;0.93;;;;;;;7.12;50.63;92466.72;4963024;28;20034;-86
2021/12/03 07:50:37;;;;;;;2.75;1.10;;;;;;;8.52;50.47;92691.72;4959079;28;20104;-86
2021/12/03 07:53:03;;;;;;;1.77;1.15;;;;;;;7.35;50.80;92504.16;4961036;28;20141;-85
2021/12/03 07:55:29;;;;;;;2.83;1.10;;;;;;;8.00;50.87;92596.88;4976626;28;20027;-85
2021/12/03 07:57:55;;;;;;;2.03;1.27;;;;;;;9.08;50.40;92718.59;4978240;28;20053;-85
2021/12/03 08:00:26;;;;;;;7.07;2.17;;;;;;;9.85;49.50;92831.81;4976054;28;20041;-87
2021/12/03 08:02:54;;;;;;;2.50;1.10;;;;;;;9.73;49.44;92789.34;4962835;28;20152;-87
2021/12/03 08:05:20;;;;;;;2.05;1.55;;;;;;;8.97;49.12;92668.63;4976708;28;20638;-87
2021/12/03 08:07:47;;;;;;;2.00;1.10;;;;;;;8.49;47.97;92584.53;4979863;28;20454;-87
2021/12/03 08:10:18;;;;;;;30.98;7.60;;;;;;;9.23;47.54;92678.97;4961696;28;20089;-87
2021/12/03 08:12:46;;;;;;;8.02;3.03;;;;;;;8.19;48.17;92493.09;4971075;28;20113;-87
2021/12/03 08:15:18;;;;;;;4.05;0.88;;;;;;;7.59;48.75;92501.63;4972881;28;20030;-86
2021/12/03 08:17:48;;;;;;;3.70;0.95;;;;;;;8.52;48.94;92623.59;4986833;28;20069;-87
2021/12/03 08:20:37;;;;;;;2.90;0.90;;;;;;;7.73;48.72;92539.19;4981666;28;20048;-86
2021/12/03 08:23:05;;;;;;;0.88;0.80;;;;;;;8.13;49.17;92550.00;4983446;28;20395;-86
2021/12/03 08:25:33;;;;;;;0.90;0.90;;;;;;;8.82;48.68;92631.38;4966077;28;20038;-85
2021/12/03 08:28:01;;;;;;;7.32;0.80;;;;;;;7.92;48.89;92526.25;4968704;28;20031;-85
2021/12/03 08:30:29;;;;;;;1.25;1.17;;;;;;;9.00;48.33;92713.03;4976525;28;20034;-86
2021/12/03 08:32:58;;;;;;;4.35;1.92;;;;;;;9.07;49.35;92709.09;4983715;28;20043;-87
2021/12/03 08:35:50;;;;;;;7.22;3.05;;;;;;;8.28;47.92;92554.69;4973281;28;20037;-85
2021/12/03 08:38:15;;;;;;;2.50;1.13;;;;;;;8.13;48.37;92555.31;4978930;28;20034;-86
2021/12/03 08:40:41;;;;;;;2.35;0.75;;;;;;;8.16;48.18;92583.78;4983879;28;20042;-86
2021/12/03 08:43:07;;;;;;;7.22;0.80;;;;;;;7.75;48.62;92499.16;4982583;28;20086;-87
2021/12/03 08:45:34;;;;;;;1.15;0.90;;;;;;;10.12;48.02;92847.06;4964122;28;20520;-84
2021/12/03 08:48:03;;;;;;;1.42;1.00;;;;;;;9.13;46.69;92721.84;4986763;28;20128;-88
2021/12/03 08:50:36;;;;;;;1.55;0.88;;;;;;;8.52;46.78;92557.38;4985730;28;20621;-86
2021/12/03 08:56:04;;;;;;;1.23;1.10;;;;;;;10.06;47.70;92856.41;4984273;28;20565;-86
2021/12/03 08:58:30;;;;;;;32.75;9.23;;;;;;;10.01;47.82;92872.56;4971752;28;20173;-85
2021/12/03 09:00:55;;;;;;;1.70;0.82;;;;;;;9.58;48.26;92784.69;4986061;28;20038;-87
2021/12/03 09:03:21;;;;;;;1.00;0.80;;;;;;;9.69;47.71;92817.63;4969894;28;20038;-86
2021/12/03 09:05:48;;;;;;;3.15;0.98;;;;;;;8.22;48.67;92621.44;4981994;28;20041;-86
2021/12/03 09:08:14;;;;;;;1.38;0.80;;;;;;;8.49;48.18;92621.63;4968603;28;20515;-85
2021/12/03 09:10:46;;;;;;;0.80;0.80;;;;;;;10.39;46.95;92890.84;4987007;28;20042;-86
2021/12/03 09:13:28;;;;;;;1.02;0.85;;;;;;;8.39;47.94;92598.19;4960120;28;20038;-85
2021/12/03 09:15:59;;;;;;;8.70;1.13;;;;;;;10.05;47.54;92876.09;4981882;28;20105;-85
2021/12/03 09:18:35;;;;;;;1.02;1.00;;;;;;;9.83;48.09;92804.81;4982037;28;20530;-88
2021/12/03 09:21:22;;;;;;;0.90;0.80;;;;;;;9.82;48.07;92829.84;4981573;28;20034;-87
2021/12/03 09:26:25;;;;;;;6.00;1.33;;;;;;;9.44;48.61;92795.59;4983662;28;20050;-87
2021/12/03 09:28:59;;;;;;;3.42;1.10;;;;;;;9.54;48.48;92800.47;4967804;28;20664;-87
2021/12/03 09:31:24;;;;;;;5.57;1.58;;;;;;;9.16;48.43;92726.47;4971495;28;20042;-86
2021/12/03 09:33:50;;;;;;;2.13;1.80;;;;;;;9.78;48.60;92834.25;4982445;28;20042;-86
2021/12/03 09:36:16;;;;;;;39.63;15.95;;;;;;;9.46;47.68;92740.31;4978400;28;20038;-86
2021/12/03 09:38:42;;;;;;;2.70;1.77;;;;;;;8.29;46.89;92529.75;4985450;28;20061;-86
2021/12/03 09:41:12;;;;;;;5.53;1.85;;;;;;;9.12;46.66;92675.19;4965685;28;20511;-86
2021/12/03 09:43:41;;;;;;;1.77;1.20;;;;;;;9.23;47.31;92728.59;4983105;28;20042;-86
2021/12/03 09:46:28;;;;;;;1.92;0.90;;;;;;;9.76;46.59;92815.22;4968389;28;20479;-87
2021/12/03 09:54:53;;;;;;;10.73;1.63;;;;;;;8.42;47.58;92631.19;4942792;28;20449;-86
2021/12/03 09:57:33;;;;;;;8.02;2.13;;;;;;;9.69;47.16;92838.88;4978139;28;20062;-86
2021/12/03 10:30:49;;;;;;;4.32;1.40;;;;;;;9.17;45.71;92574.19;4978715;28;20034;-86
2021/12/03 10:48:37;;;;;;;1.85;1.20;;;;;;;9.47;45.76;92648.22;4981298;28;20592;-85
2021/12/03 10:51:35;;;;;;;2.05;1.10;;;;;;;10.41;45.88;92733.69;4959193;28;20053;-87
2021/12/03 11:04:06;;;;;;;0.60;0.60;;;;;;;11.01;45.44;92828.41;4982632;28;20474;-85
2021/12/03 12:04:29;;;;;;;1.23;1.15;;;;;;;10.38;44.87;92737.00;4976839;28;20057;-87
2021/12/03 12:37:12;;;;;;;2.33;1.10;;;;;;;11.10;43.86;92752.66;4978250;28;20148;-85
2021/12/03 12:44:55;;;;;;;2.15;0.80;;;;;;;11.11;43.27;92732.91;4977975;28;20050;-85
2021/12/03 13:02:22;;;;;;;4.05;0.80;;;;;;;11.12;43.91;92785.03;4970192;28;20128;-85
2021/12/03 13:05:42;;;;;;;2.47;0.77;;;;;;;9.65;45.04;92583.16;4979788;28;20433;-85
2021/12/03 13:28:38;;;;;;;4.13;0.80;;;;;;;8.98;45.21;92539.47;4946575;28;20089;-85
2021/12/03 14:37:32;;;;;;;1.60;1.02;;;;;;;8.94;44.47;92600.38;4960023;28;20043;-86
2021/12/03 14:40:14;;;;;;;4.97;1.05;;;;;;;10.78;44.50;92878.72;4971572;28;20061;-86
2021/12/03 14:55:55;;;;;;;0.98;0.70;;;;;;;10.95;43.38;92795.22;4982128;28;20574;-86
2021/12/03 15:06:34;;;;;;;3.00;0.80;;;;;;;9.99;44.21;92726.00;4983790;28;20475;-87
2021/12/03 15:09:08;;;;;;;0.90;0.73;;;;;;;10.80;44.54;92857.88;4959366;28;20030;-88
2021/12/03 15:12:12;;;;;;;1.57;0.70;;;;;;;10.97;44.69;92918.00;4979648;28;20174;-87
2021/12/03 15:20:32;;;;;;;2.70;1.63;;;;;;;9.55;46.17;92798.59;4979701;28;20418;-88
2021/12/03 15:25:54;;;;;;;3.53;1.70;;;;;;;10.00;46.81;92868.34;4979581;28;20764;-87
2021/12/03 15:35:52;;;;;;;6.53;1.77;;;;;;;8.58;46.67;92627.59;4973532;28;20014;-87
2021/12/03 15:38:37;;;;;;;2.30;1.00;;;;;;;9.92;46.92;92810.81;4981791;28;20183;-87
2021/12/03 16:08:23;;;;;;;5.22;2.13;;;;;;;9.75;48.33;92976.41;4980762;28;20030;-87
2021/12/03 16:18:59;;;;;;;5.63;2.72;;;;;;;10.40;48.87;92966.81;4962141;28;20153;-85
2021/12/03 16:51:44;;;;;;;2.75;2.50;;;;;;;6.97;54.16;92834.72;4975054;28;20463;-84
2021/12/03 16:54:11;;;;;;;4.63;3.47;;;;;;;6.96;54.49;92854.28;4975910;28;20078;-86
2021/12/03 16:56:49;;;;;;;7.20;2.45;;;;;;;6.82;54.83;92844.69;4962654;28;20376;-86
2021/12/03 16:59:24;;;;;;;6.03;3.45;;;;;;;7.15;54.83;92928.75;4958671;28;20612;-87
2021/12/03 17:02:05;;;;;;;4.30;2.15;;;;;;;6.71;55.33;92875.16;4979227;28;20037;-86
2021/12/03 17:04:45;;;;;;;4.43;1.85;;;;;;;6.86;55.39;92893.19;4956837;28;20121;-85
2021/12/03 17:56:25;;;;;;;3.05;1.40;;;;;;;6.45;56.63;93056.63;4979386;28;20499;-84
2021/12/03 17:59:20;;;;;;;4.35;2.45;;;;;;;6.97;56.55;93113.06;4982463;28;20035;-85
2021/12/03 18:01:52;;;;;;;2.78;1.60;;;;;;;7.09;57.18;93134.38;4980858;28;20065;-84
2021/12/03 18:56:29;;;;;;;4.38;3.00;;;;;;;6.14;58.66;93092.78;4983117;28;20066;-85
2021/12/03 18:59:07;;;;;;;;;;;;;;;;;;;;;
2021/12/03 19:01:39;;;;;;;2.90;2.15;;;;;;;4.87;58.14;92913.06;4962428;28;20070;-85
2021/12/03 19:06:45;;;;;;;2.38;2.17;;;;;;;5.85;57.69;93072.91;4980642;28;20120;-85
2021/12/03 19:09:27;;;;;;;3.33;2.20;;;;;;;4.97;58.27;92937.34;4971277;28;20742;-85
2021/12/03 19:12:03;;;;;;;2.75;2.15;;;;;;;4.61;57.98;92879.41;4976908;28;20426;-86
2021/12/03 19:14:35;;;;;;;2.55;2.35;;;;;;;5.25;57.42;92953.03;4967627;28;20033;-85
2021/12/03 19:17:09;;;;;;;1.85;1.52;;;;;;;7.07;57.27;93230.97;4956629;28;20133;-85
2021/12/03 19:19:41;;;;;;;3.70;2.90;;;;;;;6.96;58.25;93234.94;4975630;28;20064;-86
2021/12/03 19:22:16;;;;;;;2.90;1.80;;;;;;;5.33;58.03;92995.28;4978891;28;20104;-86
2021/12/03 19:24:45;;;;;;;2.90;1.33;;;;;;;7.09;57.73;93244.69;4961159;28;20047;-84
2021/12/03 19:27:24;;;;;;;2.20;1.52;;;;;;;6.42;57.41;93133.81;4957356;28;20526;-86
2021/12/03 19:29:50;;;;;;;1.67;1.52;;;;;;;6.50;57.31;93122.53;4975987;28;20124;-85
2021/12/03 19:32:19;;;;;;;6.53;2.22;;;;;;;7.36;57.25;93252.41;4973661;28;20050;-85
2021/12/03 19:34:50;;;;;;;6.45;2.40;;;;;;;6.02;56.77;93049.22;4948984;28;20054;-85
2021/12/03 19:37:16;;;;;;;5.05;2.13;;;;;;;6.72;56.46;93142.81;4954866;28;20037;-85
2021/12/03 19:39:48;;;;;;;2.00;1.80;;;;;;;5.90;55.82;92990.19;4963064;28;20059;-86
2021/12/03 19:42:17;;;;;;;4.18;2.10;;;;;;;5.53;55.77;92954.44;4963806;28;20419;-85
2021/12/03 19:44:53;;;;;;;2.33;1.73;;;;;;;5.43;55.07;92944.16;4976176;28;20575;-85
2021/12/03 19:47:30;;;;;;;3.22;2.92;;;;;;;7.65;54.47;93262.44;4979629;28;20041;-85
2021/12/03 19:50:06;;;;;;;2.97;1.88;;;;;;;7.61;54.01;93261.50;4951641;28;20046;-86
2021/12/03 19:52:41;;;;;;;2.10;1.85;;;;;;;6.91;54.76;93182.22;4982497;28;20062;-84